createdAt,value
2019-01-06T00:02:17.443Z,0.500000
2019-01-06T00:04:47.692Z,5.500000
2019-01-06T00:07:18.084Z,5.500000
2019-01-06T00:09:48.350Z,3.700000
2019-01-06T00:12:18.645Z,3.700000
2019-01-06T00:14:49.256Z,3.100000
2019-01-06T00:17:19.565Z,2.700000
2019-01-06T00:19:49.857Z,2.700000
2019-01-06T00:22:20.234Z,2.500000
2019-01-06T00:24:50.509Z,2.500000
2019-01-06T00:27:20.798Z,1.600000
2019-01-06T00:29:51.181Z,1.600000
2019-01-06T00:32:21.557Z,5.600000
2019-01-06T00:34:51.841Z,5.600000
2019-01-06T00:37:22.146Z,4.800000
2019-01-06T00:39:52.597Z,4.800000
2019-01-06T00:42:22.884Z,4.600000
2019-01-06T00:44:53.262Z,4.600000
2019-01-06T00:47:23.555Z,3.100000
2019-01-06T00:49:53.933Z,3.100000
2019-01-06T00:52:24.237Z,2.800000
2019-01-06T00:54:54.518Z,2.800000
2019-01-06T00:57:25.130Z,1.900000
2019-01-06T00:59:55.443Z,1.900000
2019-01-06T01:02:25.784Z,1.300000
2019-01-06T01:04:56.139Z,1.300000
2019-01-06T01:07:26.345Z,3.800000
2019-01-06T01:09:56.824Z,3.800000
2019-01-06T01:12:27.198Z,1.400000
2019-01-06T01:14:57.485Z,1.400000
2019-01-06T01:17:27.856Z,1.200000
2019-01-06T01:19:58.322Z,1.200000
2019-01-06T01:22:28.720Z,1.300000
2019-01-06T01:24:59.004Z,1.300000
2019-01-06T01:27:29.302Z,4.900000
2019-01-06T01:29:59.669Z,4.900000
2019-01-06T01:32:30.049Z,4.100000
2019-01-06T01:35:00.331Z,4.100000
2019-01-06T01:37:30.603Z,3.600000
2019-01-06T01:40:00.993Z,3.600000
2019-01-06T01:42:31.384Z,3.100000
2019-01-06T01:45:01.682Z,3.100000
2019-01-06T01:47:31.870Z,2.600000
2019-01-06T01:50:02.252Z,2.600000
2019-01-06T01:52:32.524Z,2.600000
2019-01-06T01:55:02.809Z,2.600000
2019-01-06T01:57:33.125Z,1.400000
2019-01-06T02:00:08.400Z,1.400000
2019-01-06T02:02:38.758Z,3.800000
2019-01-06T02:05:09.025Z,3.800000
2019-01-06T02:07:39.309Z,1.500000
2019-01-06T02:10:09.678Z,1.500000
2019-01-06T02:12:40.041Z,2.500000
2019-01-06T02:15:10.314Z,2.500000
2019-01-06T02:17:40.686Z,4.700000
2019-01-06T02:20:11.048Z,4.700000
2019-01-06T02:22:41.415Z,0.400000
2019-01-06T02:25:11.777Z,0.400000
2019-01-06T02:27:42.040Z,2.500000
2019-01-06T02:30:12.411Z,2.500000
2019-01-06T02:32:42.769Z,4.900000
2019-01-06T02:35:13.129Z,4.900000
2019-01-06T02:37:43.394Z,4.200000
2019-01-06T02:40:13.779Z,4.200000
2019-01-06T02:42:44.131Z,4.200000
2019-01-06T02:45:14.506Z,4.200000
2019-01-06T02:47:44.850Z,5.800000
2019-01-06T02:50:15.278Z,5.800000
2019-01-06T02:52:45.595Z,3.100000
2019-01-06T02:55:15.979Z,3.100000
2019-01-06T02:57:46.314Z,2.600000
2019-01-06T03:00:16.587Z,2.600000
2019-01-06T03:02:46.940Z,1.500000
2019-01-06T03:05:17.411Z,1.500000
2019-01-06T03:07:47.780Z,6.500000
2019-01-06T03:10:18.122Z,6.500000
2019-01-06T03:12:53.604Z,1.900000
2019-01-06T03:15:23.884Z,1.900000
2019-01-06T03:17:54.207Z,1.200000
2019-01-06T03:20:24.499Z,1.200000
2019-01-06T03:22:54.870Z,3.200000
2019-01-06T03:25:25.253Z,3.200000
2019-01-06T03:27:55.606Z,4.000000
2019-01-06T03:30:31.086Z,4.000000
2019-01-06T03:33:01.426Z,6.400000
2019-01-06T03:35:31.824Z,6.400000
2019-01-06T03:38:02.392Z,3.700000
2019-01-06T03:40:37.761Z,3.700000
2019-01-06T03:43:08.056Z,4.500000
2019-01-06T03:45:38.518Z,4.500000
2019-01-06T03:48:08.805Z,5.200000
2019-01-06T03:50:39.277Z,5.200000
2019-01-06T03:53:09.571Z,5.200000
2019-01-06T03:55:39.854Z,5.200000
2019-01-06T03:58:10.135Z,3.400000
2019-01-06T04:00:40.417Z,3.400000
2019-01-06T04:03:10.702Z,3.300000
2019-01-06T04:05:41.074Z,3.300000
2019-01-06T04:08:11.364Z,6.000000
2019-01-06T04:10:41.646Z,6.000000
2019-01-06T04:13:12.027Z,6.200000
2019-01-06T04:15:42.399Z,6.200000
2019-01-06T04:18:12.759Z,8.500000
2019-01-06T04:20:43.036Z,8.500000
2019-01-06T04:23:13.438Z,7.300000
2019-01-06T04:25:43.774Z,7.300000
2019-01-06T04:28:14.055Z,4.500000
2019-01-06T04:30:44.323Z,4.500000
2019-01-06T04:33:14.618Z,2.300000
2019-01-06T04:35:44.877Z,2.300000
2019-01-06T04:38:15.273Z,6.000000
2019-01-06T04:40:45.617Z,6.000000
2019-01-06T04:43:15.991Z,4.400000
2019-01-06T04:45:46.450Z,4.400000
2019-01-06T04:48:16.822Z,3.300000
2019-01-06T04:50:47.078Z,3.300000
2019-01-06T04:53:17.467Z,4.300000
2019-01-06T04:55:47.835Z,4.300000
2019-01-06T04:58:18.187Z,5.000000
2019-01-06T05:00:48.679Z,5.000000
2019-01-06T05:03:18.947Z,5.400000
2019-01-06T05:05:49.327Z,5.400000
2019-01-06T05:08:19.614Z,5.600000
2019-01-06T05:10:49.890Z,5.600000
2019-01-06T05:13:20.254Z,4.100000
2019-01-06T05:15:50.554Z,4.100000
2019-01-06T05:18:20.945Z,5.400000
2019-01-06T05:20:56.346Z,3.200000
2019-01-06T05:23:31.734Z,3.200000
2019-01-06T05:26:02.031Z,3.700000
2019-01-06T05:28:32.320Z,3.700000
2019-01-06T05:31:02.693Z,6.900000
2019-01-06T05:33:32.906Z,6.900000
2019-01-06T05:36:03.278Z,7.800000
2019-01-06T05:38:33.563Z,7.800000
2019-01-06T05:41:03.949Z,3.200000
2019-01-06T05:43:34.243Z,3.200000
2019-01-06T05:46:04.613Z,5.100000
2019-01-06T05:48:34.967Z,5.100000
2019-01-06T05:51:05.275Z,5.400000
2019-01-06T05:53:35.638Z,5.400000
2019-01-06T05:56:05.940Z,2.700000
2019-01-06T05:58:36.371Z,2.700000
2019-01-06T06:01:06.660Z,3.200000
2019-01-06T06:03:36.956Z,3.200000
2019-01-06T06:06:07.222Z,4.300000
2019-01-06T06:08:37.599Z,4.300000
2019-01-06T06:11:07.983Z,6.300000
2019-01-06T06:13:38.347Z,6.300000
2019-01-06T06:16:08.638Z,4.100000
2019-01-06T06:18:39.004Z,4.100000
2019-01-06T06:21:09.281Z,6.400000
2019-01-06T06:23:39.560Z,6.400000
2019-01-06T06:26:10.026Z,5.600000
2019-01-06T06:28:40.322Z,5.600000
2019-01-06T06:31:10.689Z,5.000000
2019-01-06T06:33:41.057Z,5.000000
2019-01-06T06:36:11.397Z,3.600000
2019-01-06T06:38:41.788Z,3.600000
2019-01-06T06:41:12.083Z,3.000000
2019-01-06T06:43:42.536Z,3.000000
2019-01-06T06:46:12.815Z,7.200000
2019-01-06T06:48:43.175Z,7.200000
2019-01-06T06:51:13.458Z,2.300000
2019-01-06T06:53:43.730Z,2.300000
2019-01-06T06:56:14.022Z,5.100000
2019-01-06T06:58:44.383Z,5.100000
2019-01-06T07:01:14.661Z,4.000000
2019-01-06T07:03:45.134Z,4.000000
2019-01-06T07:06:15.517Z,3.000000
2019-01-06T07:08:46.072Z,3.000000
2019-01-06T07:11:16.454Z,6.500000
2019-01-06T07:13:46.749Z,6.500000
2019-01-06T07:16:17.024Z,4.300000
2019-01-06T07:18:47.308Z,4.300000
2019-01-06T07:21:17.682Z,3.300000
2019-01-06T07:23:48.059Z,3.300000
2019-01-06T07:26:18.317Z,6.000000
2019-01-06T07:28:48.860Z,6.000000
2019-01-06T07:31:19.271Z,2.600000
2019-01-06T07:33:49.559Z,2.600000
2019-01-06T07:36:20.013Z,3.900000
2019-01-06T07:38:50.347Z,3.900000
2019-01-06T07:41:20.706Z,6.300000
2019-01-06T07:43:51.001Z,6.300000
2019-01-06T07:46:21.399Z,5.100000
2019-01-06T07:48:52.848Z,5.100000
2019-01-06T07:51:23.129Z,5.800000
2019-01-06T07:53:53.422Z,5.800000
2019-01-06T07:56:23.803Z,3.300000
2019-01-06T07:58:54.173Z,3.300000
2019-01-06T08:01:24.599Z,6.500000
2019-01-06T08:03:54.922Z,6.500000
2019-01-06T08:06:25.297Z,5.800000
2019-01-06T08:08:55.579Z,5.800000
2019-01-06T08:11:25.863Z,5.000000
2019-01-06T08:13:56.348Z,5.000000
2019-01-06T08:16:26.651Z,2.400000
2019-01-06T08:18:57.022Z,2.400000
2019-01-06T08:21:27.299Z,4.700000
2019-01-06T08:23:57.584Z,4.700000
2019-01-06T08:26:27.864Z,6.200000
2019-01-06T08:28:58.156Z,6.200000
2019-01-06T08:31:28.463Z,4.700000
2019-01-06T08:33:58.741Z,4.700000
2019-01-06T08:36:29.051Z,3.200000
2019-01-06T08:38:59.346Z,3.200000
2019-01-06T08:41:29.724Z,4.500000
2019-01-06T08:44:00.056Z,4.500000
2019-01-06T08:46:30.428Z,4.300000
2019-01-06T08:49:05.807Z,4.300000
2019-01-06T08:51:36.104Z,5.600000
2019-01-06T08:54:06.608Z,5.600000
2019-01-06T08:56:36.934Z,3.600000
2019-01-06T08:59:07.336Z,3.600000
2019-01-06T09:01:37.530Z,4.600000
2019-01-06T09:04:07.838Z,4.600000
2019-01-06T09:06:38.165Z,5.900000
2019-01-06T09:09:08.575Z,5.900000
2019-01-06T09:11:38.964Z,3.300000
2019-01-06T09:14:09.292Z,3.300000
2019-01-06T09:16:39.681Z,5.100000
2019-01-06T09:19:10.167Z,5.100000
2019-01-06T09:21:40.466Z,7.000000
2019-01-06T09:24:10.880Z,7.000000
2019-01-06T09:26:46.143Z,3.500000
2019-01-06T09:29:16.432Z,3.500000
2019-01-06T09:31:46.828Z,5.200000
2019-01-06T09:34:17.122Z,5.200000
2019-01-06T09:36:47.418Z,3.600000
2019-01-06T09:39:17.736Z,3.600000
2019-01-06T09:41:48.104Z,9.200000
2019-01-06T09:44:18.393Z,9.200000
2019-01-06T09:46:49.875Z,5.400000
2019-01-06T09:49:20.796Z,5.400000
2019-01-06T09:51:51.153Z,5.300000
2019-01-06T09:54:21.724Z,5.300000
2019-01-06T09:56:52.022Z,5.300000
2019-01-06T09:59:22.334Z,5.300000
2019-01-06T10:01:52.915Z,2.700000
2019-01-06T10:04:23.386Z,2.700000
2019-01-06T10:06:53.696Z,4.500000
2019-01-06T10:09:23.991Z,4.500000
2019-01-06T10:11:54.314Z,3.500000
2019-01-06T10:14:24.706Z,3.500000
2019-01-06T10:16:55.111Z,4.500000
2019-01-06T10:19:25.520Z,4.500000
2019-01-06T10:21:55.811Z,4.700000
2019-01-06T10:24:26.118Z,2.100000
2019-01-06T10:26:56.526Z,2.100000
2019-01-06T10:29:26.912Z,1.700000
2019-01-06T10:31:57.220Z,1.700000
2019-01-06T10:34:27.667Z,2.100000
2019-01-06T10:36:58.396Z,2.100000
2019-01-06T10:39:28.916Z,3.900000
2019-01-06T10:41:59.449Z,3.900000
2019-01-06T10:44:29.856Z,4.100000
2019-01-06T10:47:00.127Z,4.100000
2019-01-06T10:49:30.685Z,3.300000
2019-01-06T10:52:01.143Z,3.300000
2019-01-06T10:54:31.450Z,2.800000
2019-01-06T10:57:01.787Z,2.800000
2019-01-06T10:59:32.090Z,3.600000
2019-01-06T11:02:02.494Z,3.600000
2019-01-06T11:04:32.819Z,2.900000
2019-01-06T11:07:03.224Z,2.900000
2019-01-06T11:09:33.538Z,2.600000
2019-01-06T11:12:04.024Z,2.600000
2019-01-06T11:14:34.350Z,1.700000
2019-01-06T11:17:04.699Z,1.700000
2019-01-06T11:19:35.409Z,4.600000
2019-01-06T11:22:07.859Z,4.600000
2019-01-06T11:24:38.202Z,2.600000
2019-01-06T11:27:08.523Z,2.600000
2019-01-06T11:29:38.848Z,3.300000
2019-01-06T11:32:09.260Z,3.300000
2019-01-06T11:34:39.704Z,2.600000
2019-01-06T11:37:10.003Z,2.600000
2019-01-06T11:39:40.346Z,3.600000
2019-01-06T11:42:10.655Z,3.600000
2019-01-06T11:44:40.987Z,3.100000
2019-01-06T11:47:11.331Z,3.100000
2019-01-06T11:49:41.753Z,1.900000
2019-01-06T11:52:12.277Z,1.900000
2019-01-06T11:54:42.911Z,2.100000
2019-01-06T11:57:13.539Z,2.100000
2019-01-06T11:59:43.879Z,3.900000
2019-01-06T12:02:14.187Z,3.900000
2019-01-06T12:04:44.563Z,4.900000
2019-01-06T12:07:14.829Z,4.900000
2019-01-06T12:09:45.348Z,3.200000
2019-01-06T12:12:15.698Z,3.200000
2019-01-06T12:14:46.025Z,3.500000
2019-01-06T12:17:16.386Z,3.500000
2019-01-06T12:19:46.708Z,3.700000
2019-01-06T12:22:17.061Z,3.700000
2019-01-06T12:24:47.412Z,3.100000
2019-01-06T12:27:17.778Z,3.100000
2019-01-06T12:29:48.098Z,2.400000
2019-01-06T12:32:18.458Z,2.400000
2019-01-06T12:34:48.813Z,3.000000
2019-01-06T12:37:19.172Z,3.000000
2019-01-06T12:39:49.411Z,2.300000
2019-01-06T12:42:19.908Z,2.300000
2019-01-06T12:44:50.461Z,1.800000
2019-01-06T12:47:20.773Z,1.800000
2019-01-06T12:49:51.513Z,3.900000
2019-01-06T12:52:21.785Z,3.900000
2019-01-06T12:54:52.115Z,19.400000
2019-01-06T12:57:22.609Z,19.400000
2019-01-06T12:59:53.153Z,16.100000
2019-01-06T13:02:23.566Z,16.100000
2019-01-06T13:04:53.923Z,8.200000
2019-01-06T13:07:24.242Z,8.200000
2019-01-06T13:09:54.538Z,25.000000
2019-01-06T13:12:29.822Z,25.000000
2019-01-06T13:15:00.205Z,37.300000
2019-01-06T13:17:35.589Z,37.300000
2019-01-06T13:20:05.948Z,31.400000
2019-01-06T13:22:36.387Z,31.400000
2019-01-06T13:25:06.678Z,61.000000
2019-01-06T13:27:36.999Z,61.000000
2019-01-06T13:30:07.243Z,37.300000
2019-01-06T13:32:37.614Z,37.300000
2019-01-06T13:35:08.017Z,35.700000
2019-01-06T13:37:38.585Z,35.700000
2019-01-06T13:40:09.033Z,29.700000
2019-01-06T13:42:39.286Z,29.700000
2019-01-06T13:45:09.541Z,42.300000
2019-01-06T13:47:39.880Z,42.300000
2019-01-06T13:50:10.272Z,19.600000
2019-01-06T13:52:40.642Z,19.600000
2019-01-06T13:55:11.059Z,14.700000
2019-01-06T13:57:41.530Z,14.700000
2019-01-06T14:00:11.864Z,23.600000
2019-01-06T14:02:42.180Z,23.600000
2019-01-06T14:05:12.522Z,18.100000
2019-01-06T14:07:42.878Z,18.100000
2019-01-06T14:10:13.241Z,14.100000
2019-01-06T14:12:43.477Z,14.100000
2019-01-06T14:15:13.822Z,24.200000
2019-01-06T14:17:44.198Z,24.200000
2019-01-06T14:20:16.957Z,25.000000
2019-01-06T14:22:47.540Z,25.000000
2019-01-06T14:25:17.878Z,25.200000
2019-01-06T14:27:48.115Z,25.200000
2019-01-06T14:30:18.498Z,19.400000
2019-01-06T14:32:48.943Z,19.400000
2019-01-06T14:35:19.289Z,22.100000
2019-01-06T14:37:49.614Z,22.100000
2019-01-06T14:40:19.992Z,27.800000
2019-01-06T14:42:50.347Z,27.800000
2019-01-06T14:45:20.694Z,23.800000
2019-01-06T14:47:51.038Z,23.800000
2019-01-06T14:50:21.375Z,23.400000
2019-01-06T14:52:51.734Z,23.400000
2019-01-06T14:55:22.180Z,25.000000
2019-01-06T14:57:52.948Z,25.000000
2019-01-06T15:00:25.321Z,18.600000
2019-01-06T15:02:55.626Z,18.600000
2019-01-06T15:05:30.970Z,27.200000
2019-01-06T15:08:01.233Z,27.200000
2019-01-06T15:10:36.484Z,21.200000
2019-01-06T15:13:06.809Z,21.200000
2019-01-06T15:15:37.504Z,31.500000
2019-01-06T15:18:08.176Z,23.200000
2019-01-06T15:20:38.654Z,23.200000
2019-01-06T15:23:08.978Z,29.500000
2019-01-06T15:25:39.329Z,29.500000
2019-01-06T15:28:09.751Z,18.600000
2019-01-06T15:30:40.346Z,18.600000
2019-01-06T15:33:10.777Z,27.700000
2019-01-06T15:35:46.182Z,27.700000
2019-01-06T15:38:16.579Z,21.200000
2019-01-06T15:40:46.788Z,21.200000
2019-01-06T15:43:17.150Z,19.300000
2019-01-06T15:45:47.662Z,19.300000
2019-01-06T15:48:17.995Z,14.800000
2019-01-06T15:50:48.355Z,14.800000
2019-01-06T15:53:18.643Z,19.000000
2019-01-06T15:55:48.941Z,19.000000
2019-01-06T15:58:19.247Z,13.100000
2019-01-06T16:00:49.681Z,13.100000
2019-01-06T16:03:20.189Z,12.300000
2019-01-06T16:05:50.621Z,12.300000
2019-01-06T16:08:21.032Z,16.900000
2019-01-06T16:10:51.331Z,16.900000
2019-01-06T16:13:21.648Z,16.700000
2019-01-06T16:15:51.953Z,16.700000
2019-01-06T16:18:22.322Z,9.900000
2019-01-06T16:20:52.577Z,9.900000
2019-01-06T16:23:22.879Z,11.800000
2019-01-06T16:25:53.072Z,11.800000
2019-01-06T16:28:23.439Z,11.200000
2019-01-06T16:30:53.812Z,11.200000
2019-01-06T16:33:24.206Z,12.700000
2019-01-06T16:35:54.528Z,12.700000
2019-01-06T16:38:26.649Z,10.500000
2019-01-06T16:40:57.135Z,10.500000
2019-01-06T16:43:27.731Z,11.500000
2019-01-06T16:45:58.074Z,11.500000
2019-01-06T16:48:28.372Z,15.200000
2019-01-06T16:50:58.697Z,15.200000
2019-01-06T16:53:28.989Z,11.900000
2019-01-06T16:55:59.410Z,11.900000
2019-01-06T16:58:29.713Z,9.700000
2019-01-06T17:01:00.021Z,9.700000
2019-01-06T17:03:30.314Z,18.800000
2019-01-06T17:06:00.671Z,18.800000
2019-01-06T17:08:31.020Z,28.600000
2019-01-06T17:11:01.437Z,28.600000
2019-01-06T17:13:31.865Z,28.500000
2019-01-06T17:16:02.212Z,28.500000
2019-01-06T17:18:32.862Z,46.700000
2019-01-06T17:21:08.355Z,46.700000
2019-01-06T17:23:38.605Z,27.100000
2019-01-06T17:26:13.842Z,27.100000
2019-01-06T17:28:44.227Z,17.800000
2019-01-06T17:31:14.449Z,17.800000
2019-01-06T17:33:44.775Z,47.100000
2019-01-06T17:36:15.221Z,47.100000
2019-01-06T17:38:45.547Z,31.600000
2019-01-06T17:41:15.842Z,31.600000
2019-01-06T17:43:46.154Z,36.400000
2019-01-06T17:46:16.463Z,36.400000
2019-01-06T17:48:46.943Z,37.800000
2019-01-06T17:51:17.236Z,37.800000
2019-01-06T17:53:47.618Z,33.200000
2019-01-06T17:56:17.961Z,33.200000
2019-01-06T17:58:48.367Z,28.200000
2019-01-06T18:01:18.875Z,28.200000
2019-01-06T18:03:49.158Z,24.200000
2019-01-06T18:06:19.377Z,24.200000
2019-01-06T18:08:49.674Z,38.300000
2019-01-06T18:11:19.983Z,38.300000
2019-01-06T18:13:50.180Z,82.800000
2019-01-06T18:16:20.499Z,82.800000
2019-01-06T18:18:50.921Z,54.300000
2019-01-06T18:21:21.445Z,54.300000
2019-01-06T18:23:51.799Z,70.400000
2019-01-06T18:26:22.123Z,70.400000
2019-01-06T18:28:52.423Z,43.300000
2019-01-06T18:31:22.731Z,43.300000
2019-01-06T18:33:53.148Z,54.800000
2019-01-06T18:36:23.542Z,54.800000
2019-01-06T18:38:58.887Z,50.300000
2019-01-06T18:41:29.280Z,50.300000
2019-01-06T18:43:59.673Z,62.700000
2019-01-06T18:46:29.935Z,62.700000
2019-01-06T18:49:00.348Z,62.500000
2019-01-06T18:51:30.689Z,62.500000
2019-01-06T18:54:03.061Z,68.400000
2019-01-06T18:56:33.404Z,68.400000
2019-01-06T18:59:03.702Z,48.100000
2019-01-06T19:01:34.475Z,48.100000
2019-01-06T19:04:04.936Z,15.000000
2019-01-06T19:06:35.299Z,15.000000
2019-01-06T19:09:05.630Z,18.200000
2019-01-06T19:11:36.015Z,18.200000
2019-01-06T19:14:06.461Z,49.600000
2019-01-06T19:16:36.810Z,49.600000
2019-01-06T19:19:07.229Z,49.200000
2019-01-06T19:21:42.604Z,49.200000
2019-01-06T19:24:12.864Z,42.800000
2019-01-06T19:26:43.166Z,42.800000
2019-01-06T19:29:13.577Z,46.600000
2019-01-06T19:31:44.110Z,46.600000
2019-01-06T19:34:14.631Z,34.200000
2019-01-06T19:36:46.691Z,34.200000
2019-01-06T19:39:17.036Z,32.000000
2019-01-06T19:41:47.323Z,32.000000
2019-01-06T19:44:17.728Z,27.300000
2019-01-06T19:46:48.170Z,27.300000
2019-01-06T19:49:18.811Z,31.600000
2019-01-06T19:51:49.278Z,31.600000
2019-01-06T19:54:19.551Z,35.900000
2019-01-06T19:56:49.904Z,35.900000
2019-01-06T19:59:20.287Z,33.500000
2019-01-06T20:01:50.744Z,24.100000
2019-01-06T20:04:21.056Z,24.100000
2019-01-06T20:06:52.458Z,18.400000
2019-01-06T20:09:22.833Z,18.400000
2019-01-06T20:11:53.121Z,22.800000
2019-01-06T20:14:23.537Z,22.800000
2019-01-06T20:16:53.941Z,25.700000
2019-01-06T20:19:24.239Z,25.700000
2019-01-06T20:21:54.538Z,26.100000
2019-01-06T20:24:24.996Z,26.100000
2019-01-06T20:26:55.454Z,20.100000
2019-01-06T20:29:25.972Z,20.100000
2019-01-06T20:31:56.264Z,20.300000
2019-01-06T20:34:26.564Z,20.300000
2019-01-06T20:36:56.878Z,18.100000
2019-01-06T20:39:27.247Z,18.100000
2019-01-06T20:41:58.927Z,21.000000
2019-01-06T20:44:29.409Z,21.000000
2019-01-06T20:46:59.721Z,21.400000
2019-01-06T20:49:29.929Z,21.400000
2019-01-06T20:52:00.324Z,19.300000
2019-01-06T20:54:30.711Z,19.300000
2019-01-06T20:57:01.066Z,19.000000
2019-01-06T20:59:31.476Z,19.000000
2019-01-06T21:02:01.849Z,17.500000
2019-01-06T21:04:32.230Z,17.500000
2019-01-06T21:07:02.634Z,21.200000
2019-01-06T21:09:33.034Z,21.200000
2019-01-06T21:12:03.366Z,18.200000
2019-01-06T21:14:38.582Z,18.200000
2019-01-06T21:17:08.964Z,18.100000
2019-01-06T21:19:39.358Z,18.100000
2019-01-06T21:22:09.646Z,15.400000
2019-01-06T21:24:40.158Z,15.400000
2019-01-06T21:27:10.531Z,16.100000
2019-01-06T21:29:40.832Z,16.100000
2019-01-06T21:32:11.276Z,16.400000
2019-01-06T21:34:41.711Z,16.400000
2019-01-06T21:37:12.045Z,14.600000
2019-01-06T21:39:42.333Z,14.600000
2019-01-06T21:42:12.641Z,16.300000
2019-01-06T21:44:42.820Z,16.300000
2019-01-06T21:47:13.243Z,14.700000
2019-01-06T21:49:43.605Z,14.700000
2019-01-06T21:52:18.922Z,18.000000
2019-01-06T21:54:49.168Z,18.000000
2019-01-06T21:57:19.446Z,15.800000
2019-01-06T21:59:49.743Z,15.800000
2019-01-06T22:02:20.128Z,11.400000
2019-01-06T22:04:50.532Z,11.400000
2019-01-06T22:07:20.802Z,12.400000
2019-01-06T22:09:51.116Z,12.400000
2019-01-06T22:12:21.396Z,13.300000
2019-01-06T22:14:51.675Z,13.300000
2019-01-06T22:17:21.971Z,12.400000
2019-01-06T22:19:52.241Z,12.400000
2019-01-06T22:22:22.454Z,14.800000
2019-01-06T22:24:52.855Z,14.800000
2019-01-06T22:27:23.135Z,13.800000
2019-01-06T22:29:54.470Z,13.800000
2019-01-06T22:32:24.783Z,16.500000
2019-01-06T22:34:55.113Z,16.500000
2019-01-06T22:37:25.478Z,11.600000
2019-01-06T22:39:55.786Z,11.600000
2019-01-06T22:42:26.179Z,13.100000
2019-01-06T22:44:56.671Z,13.100000
2019-01-06T22:47:26.871Z,11.200000
2019-01-06T22:49:57.055Z,11.200000
2019-01-06T22:52:27.364Z,12.700000
2019-01-06T22:54:57.637Z,12.700000
2019-01-06T22:57:27.922Z,15.100000
2019-01-06T22:59:58.331Z,15.100000
2019-01-06T23:02:28.679Z,12.800000
2019-01-06T23:04:58.948Z,12.800000
2019-01-06T23:07:29.228Z,11.000000
2019-01-06T23:09:59.496Z,11.000000
2019-01-06T23:12:29.850Z,13.600000
2019-01-06T23:15:00.324Z,13.600000
2019-01-06T23:17:30.695Z,10.400000
2019-01-06T23:20:01.111Z,10.400000
2019-01-06T23:22:36.480Z,12.800000
2019-01-06T23:25:06.810Z,12.800000
2019-01-06T23:27:37.105Z,11.900000
2019-01-06T23:30:07.463Z,11.900000
2019-01-06T23:32:37.658Z,11.100000
2019-01-06T23:35:07.937Z,11.100000
2019-01-06T23:37:38.303Z,10.300000
2019-01-06T23:40:08.670Z,10.300000
2019-01-06T23:42:38.960Z,10.100000
2019-01-06T23:45:09.226Z,10.100000
2019-01-06T23:47:39.606Z,10.600000
2019-01-06T23:50:09.980Z,10.600000
2019-01-06T23:52:40.353Z,11.000000
2019-01-06T23:55:10.632Z,11.000000
2019-01-06T23:57:40.908Z,9.700000
